sensor_id;sensor_type;location;lat;lon;timestamp;P1;durP1;ratioP1;P2;durP2;ratioP2
72791;SDS011;60907;53.268;8.764;2022-08-07T00:00:52;9.45;;;4.72;;
72791;SDS011;60907;53.268;8.764;2022-08-07T00:03:18;7.03;;;4.22;;
72791;SDS011;60907;53.268;8.764;2022-08-07T00:05:44;7.57;;;4.25;;
72791;SDS011;60907;53.268;8.764;2022-08-07T00:08:09;6.10;;;3.92;;
72791;SDS011;60907;53.268;8.764;2022-08-07T00:10:35;8.48;;;4.90;;
72791;SDS011;60907;53.268;8.764;2022-08-07T00:13:02;8.77;;;5.13;;
72791;SDS011;60907;53.268;8.764;2022-08-07T00:15:29;9.25;;;5.72;;
72791;SDS011;60907;53.268;8.764;2022-08-07T00:17:55;9.32;;;4.72;;
72791;SDS011;60907;53.268;8.764;2022-08-07T00:20:20;8.02;;;5.32;;
72791;SDS011;60907;53.268;8.764;2022-08-07T00:22:46;8.55;;;4.90;;
72791;SDS011;60907;53.268;8.764;2022-08-07T00:25:12;10.07;;;5.03;;
72791;SDS011;60907;53.268;8.764;2022-08-07T00:27:37;8.27;;;4.90;;
72791;SDS011;60907;53.268;8.764;2022-08-07T00:30:03;9.63;;;5.32;;
72791;SDS011;60907;53.268;8.764;2022-08-07T00:32:29;12.30;;;4.97;;
72791;SDS011;60907;53.268;8.764;2022-08-07T00:34:54;8.07;;;4.57;;
72791;SDS011;60907;53.268;8.764;2022-08-07T00:37:20;10.13;;;4.65;;
72791;SDS011;60907;53.268;8.764;2022-08-07T00:39:46;8.68;;;4.72;;
72791;SDS011;60907;53.268;8.764;2022-08-07T00:42:11;8.55;;;4.57;;
72791;SDS011;60907;53.268;8.764;2022-08-07T00:44:37;10.15;;;5.15;;
72791;SDS011;60907;53.268;8.764;2022-08-07T00:47:03;8.50;;;5.30;;
72791;SDS011;60907;53.268;8.764;2022-08-07T00:49:29;6.88;;;4.10;;
72791;SDS011;60907;53.268;8.764;2022-08-07T00:51:55;8.40;;;4.90;;
72791;SDS011;60907;53.268;8.764;2022-08-07T00:54:20;9.68;;;4.97;;
72791;SDS011;60907;53.268;8.764;2022-08-07T00:56:46;8.98;;;5.65;;
72791;SDS011;60907;53.268;8.764;2022-08-07T00:59:12;9.20;;;5.20;;
72791;SDS011;60907;53.268;8.764;2022-08-07T01:01:38;12.38;;;5.45;;
72791;SDS011;60907;53.268;8.764;2022-08-07T01:04:06;8.95;;;5.03;;
72791;SDS011;60907;53.268;8.764;2022-08-07T01:06:32;10.10;;;5.13;;
72791;SDS011;60907;53.268;8.764;2022-08-07T01:08:58;8.73;;;5.15;;
72791;SDS011;60907;53.268;8.764;2022-08-07T01:11:25;8.68;;;4.32;;
72791;SDS011;60907;53.268;8.764;2022-08-07T01:13:50;6.97;;;4.47;;
72791;SDS011;60907;53.268;8.764;2022-08-07T01:16:16;7.13;;;4.15;;
72791;SDS011;60907;53.268;8.764;2022-08-07T01:18:42;9.18;;;4.65;;
72791;SDS011;60907;53.268;8.764;2022-08-07T01:23:36;6.95;;;4.43;;
72791;SDS011;60907;53.268;8.764;2022-08-07T01:26:03;6.65;;;3.90;;
72791;SDS011;60907;53.268;8.764;2022-08-07T01:28:29;7.03;;;3.92;;
72791;SDS011;60907;53.268;8.764;2022-08-07T01:30:55;7.07;;;4.57;;
72791;SDS011;60907;53.268;8.764;2022-08-07T01:33:21;7.60;;;4.45;;
72791;SDS011;60907;53.268;8.764;2022-08-07T01:35:47;8.43;;;4.43;;
72791;SDS011;60907;53.268;8.764;2022-08-07T01:38:13;7.88;;;4.15;;
72791;SDS011;60907;53.268;8.764;2022-08-07T01:40:38;7.68;;;4.45;;
72791;SDS011;60907;53.268;8.764;2022-08-07T01:43:05;7.47;;;4.53;;
72791;SDS011;60907;53.268;8.764;2022-08-07T01:45:31;7.35;;;4.47;;
72791;SDS011;60907;53.268;8.764;2022-08-07T01:47:57;7.47;;;4.35;;
72791;SDS011;60907;53.268;8.764;2022-08-07T01:50:24;9.43;;;4.07;;
72791;SDS011;60907;53.268;8.764;2022-08-07T01:52:50;6.57;;;3.70;;
72791;SDS011;60907;53.268;8.764;2022-08-07T01:55:16;9.35;;;4.47;;
72791;SDS011;60907;53.268;8.764;2022-08-07T01:57:42;7.88;;;4.30;;
72791;SDS011;60907;53.268;8.764;2022-08-07T02:00:10;7.00;;;3.97;;
72791;SDS011;60907;53.268;8.764;2022-08-07T02:02:39;6.72;;;4.00;;
72791;SDS011;60907;53.268;8.764;2022-08-07T02:05:11;8.13;;;4.13;;
72791;SDS011;60907;53.268;8.764;2022-08-07T02:07:40;9.02;;;4.40;;
72791;SDS011;60907;53.268;8.764;2022-08-07T02:10:07;7.68;;;4.07;;
72791;SDS011;60907;53.268;8.764;2022-08-07T02:12:37;5.97;;;3.85;;
72791;SDS011;60907;53.268;8.764;2022-08-07T02:15:05;7.55;;;3.90;;
72791;SDS011;60907;53.268;8.764;2022-08-07T02:17:31;6.32;;;3.65;;
72791;SDS011;60907;53.268;8.764;2022-08-07T02:19:57;7.53;;;4.07;;
72791;SDS011;60907;53.268;8.764;2022-08-07T02:22:23;6.85;;;4.38;;
72791;SDS011;60907;53.268;8.764;2022-08-07T02:24:50;5.97;;;3.75;;
72791;SDS011;60907;53.268;8.764;2022-08-07T02:27:18;7.88;;;3.78;;
72791;SDS011;60907;53.268;8.764;2022-08-07T02:29:45;6.93;;;3.22;;
72791;SDS011;60907;53.268;8.764;2022-08-07T02:32:11;6.13;;;3.67;;
72791;SDS011;60907;53.268;8.764;2022-08-07T02:34:37;7.55;;;3.78;;
72791;SDS011;60907;53.268;8.764;2022-08-07T02:37:04;6.22;;;3.30;;
72791;SDS011;60907;53.268;8.764;2022-08-07T02:39:32;6.03;;;3.30;;
72791;SDS011;60907;53.268;8.764;2022-08-07T02:41:59;5.82;;;3.78;;
72791;SDS011;60907;53.268;8.764;2022-08-07T02:44:26;7.05;;;3.50;;
72791;SDS011;60907;53.268;8.764;2022-08-07T02:46:54;7.18;;;3.88;;
72791;SDS011;60907;53.268;8.764;2022-08-07T02:49:20;6.18;;;4.05;;
72791;SDS011;60907;53.268;8.764;2022-08-07T02:51:46;8.27;;;4.20;;
72791;SDS011;60907;53.268;8.764;2022-08-07T02:54:12;6.40;;;4.20;;
72791;SDS011;60907;53.268;8.764;2022-08-07T02:56:39;5.55;;;3.70;;
72791;SDS011;60907;53.268;8.764;2022-08-07T02:59:07;5.43;;;3.13;;
72791;SDS011;60907;53.268;8.764;2022-08-07T03:01:35;5.65;;;3.30;;
72791;SDS011;60907;53.268;8.764;2022-08-07T03:04:06;6.05;;;3.40;;
72791;SDS011;60907;53.268;8.764;2022-08-07T03:06:33;7.07;;;3.78;;
72791;SDS011;60907;53.268;8.764;2022-08-07T03:09:03;6.97;;;4.55;;
72791;SDS011;60907;53.268;8.764;2022-08-07T03:11:29;7.00;;;3.50;;
72791;SDS011;60907;53.268;8.764;2022-08-07T03:13:55;6.47;;;3.63;;
72791;SDS011;60907;53.268;8.764;2022-08-07T03:16:22;5.55;;;3.00;;
72791;SDS011;60907;53.268;8.764;2022-08-07T03:18:47;6.28;;;2.85;;
72791;SDS011;60907;53.268;8.764;2022-08-07T03:21:13;6.40;;;3.35;;
72791;SDS011;60907;53.268;8.764;2022-08-07T03:23:39;6.50;;;3.80;;
72791;SDS011;60907;53.268;8.764;2022-08-07T03:26:05;8.55;;;3.92;;
72791;SDS011;60907;53.268;8.764;2022-08-07T03:28:32;7.38;;;3.45;;
72791;SDS011;60907;53.268;8.764;2022-08-07T03:30:59;6.50;;;3.30;;
72791;SDS011;60907;53.268;8.764;2022-08-07T03:36:20;6.28;;;3.22;;
72791;SDS011;60907;53.268;8.764;2022-08-07T03:41:13;7.90;;;4.13;;
72791;SDS011;60907;53.268;8.764;2022-08-07T03:43:39;5.95;;;3.55;;
72791;SDS011;60907;53.268;8.764;2022-08-07T03:46:05;8.73;;;3.83;;
72791;SDS011;60907;53.268;8.764;2022-08-07T03:48:32;8.23;;;4.50;;
72791;SDS011;60907;53.268;8.764;2022-08-07T03:50:58;6.53;;;2.75;;
72791;SDS011;60907;53.268;8.764;2022-08-07T03:53:25;6.88;;;3.38;;
72791;SDS011;60907;53.268;8.764;2022-08-07T03:55:51;6.10;;;3.72;;
72791;SDS011;60907;53.268;8.764;2022-08-07T03:58:17;7.25;;;3.78;;
72791;SDS011;60907;53.268;8.764;2022-08-07T04:00:44;4.95;;;3.03;;
72791;SDS011;60907;53.268;8.764;2022-08-07T04:03:11;8.15;;;3.53;;
72791;SDS011;60907;53.268;8.764;2022-08-07T04:05:36;5.90;;;3.38;;
72791;SDS011;60907;53.268;8.764;2022-08-07T04:08:02;7.70;;;3.67;;
72791;SDS011;60907;53.268;8.764;2022-08-07T04:10:28;5.88;;;3.45;;
72791;SDS011;60907;53.268;8.764;2022-08-07T04:12:55;6.45;;;3.55;;
72791;SDS011;60907;53.268;8.764;2022-08-07T04:15:21;5.82;;;3.25;;
72791;SDS011;60907;53.268;8.764;2022-08-07T04:17:46;7.65;;;3.63;;
72791;SDS011;60907;53.268;8.764;2022-08-07T04:20:12;6.65;;;4.10;;
72791;SDS011;60907;53.268;8.764;2022-08-07T04:22:40;5.93;;;3.92;;
72791;SDS011;60907;53.268;8.764;2022-08-07T04:25:06;7.55;;;3.45;;
72791;SDS011;60907;53.268;8.764;2022-08-07T04:27:33;6.88;;;3.58;;
72791;SDS011;60907;53.268;8.764;2022-08-07T04:29:58;6.65;;;3.85;;
72791;SDS011;60907;53.268;8.764;2022-08-07T04:32:24;6.90;;;3.85;;
72791;SDS011;60907;53.268;8.764;2022-08-07T04:34:49;4.72;;;3.00;;
72791;SDS011;60907;53.268;8.764;2022-08-07T04:37:15;6.82;;;3.80;;
72791;SDS011;60907;53.268;8.764;2022-08-07T04:39:41;7.10;;;3.92;;
72791;SDS011;60907;53.268;8.764;2022-08-07T04:42:07;8.85;;;4.72;;
72791;SDS011;60907;53.268;8.764;2022-08-07T04:44:32;8.85;;;4.22;;
72791;SDS011;60907;53.268;8.764;2022-08-07T04:47:04;5.57;;;3.28;;
72791;SDS011;60907;53.268;8.764;2022-08-07T04:49:41;8.35;;;4.00;;
72791;SDS011;60907;53.268;8.764;2022-08-07T04:52:24;8.57;;;4.30;;
72791;SDS011;60907;53.268;8.764;2022-08-07T04:55:00;10.57;;;5.40;;
72791;SDS011;60907;53.268;8.764;2022-08-07T04:57:36;7.10;;;4.32;;
72791;SDS011;60907;53.268;8.764;2022-08-07T05:00:23;9.50;;;4.55;;
72791;SDS011;60907;53.268;8.764;2022-08-07T05:02:58;9.60;;;5.13;;
72791;SDS011;60907;53.268;8.764;2022-08-07T05:05:59;9.27;;;4.72;;
72791;SDS011;60907;53.268;8.764;2022-08-07T05:11:08;8.98;;;4.85;;
72791;SDS011;60907;53.268;8.764;2022-08-07T05:13:38;8.48;;;4.47;;
72791;SDS011;60907;53.268;8.764;2022-08-07T05:16:11;10.63;;;4.70;;
72791;SDS011;60907;53.268;8.764;2022-08-07T05:18:39;9.10;;;4.47;;
72791;SDS011;60907;53.268;8.764;2022-08-07T05:21:08;10.38;;;5.55;;
72791;SDS011;60907;53.268;8.764;2022-08-07T05:23:37;10.88;;;5.70;;
72791;SDS011;60907;53.268;8.764;2022-08-07T05:26:06;12.82;;;5.10;;
72791;SDS011;60907;53.268;8.764;2022-08-07T05:28:34;9.38;;;4.90;;
72791;SDS011;60907;53.268;8.764;2022-08-07T05:31:01;10.85;;;5.32;;
72791;SDS011;60907;53.268;8.764;2022-08-07T05:33:27;10.73;;;5.70;;
72791;SDS011;60907;53.268;8.764;2022-08-07T05:35:54;10.85;;;5.72;;
72791;SDS011;60907;53.268;8.764;2022-08-07T05:38:20;13.18;;;6.00;;
72791;SDS011;60907;53.268;8.764;2022-08-07T05:40:46;11.98;;;6.35;;
72791;SDS011;60907;53.268;8.764;2022-08-07T05:43:12;13.38;;;6.32;;
72791;SDS011;60907;53.268;8.764;2022-08-07T05:45:38;12.88;;;5.93;;
72791;SDS011;60907;53.268;8.764;2022-08-07T05:48:04;11.40;;;6.05;;
72791;SDS011;60907;53.268;8.764;2022-08-07T05:50:30;15.52;;;6.05;;
72791;SDS011;60907;53.268;8.764;2022-08-07T05:52:58;12.82;;;6.18;;
72791;SDS011;60907;53.268;8.764;2022-08-07T05:55:25;11.38;;;6.10;;
72791;SDS011;60907;53.268;8.764;2022-08-07T05:57:50;14.98;;;6.65;;
72791;SDS011;60907;53.268;8.764;2022-08-07T06:00:17;12.80;;;5.90;;
72791;SDS011;60907;53.268;8.764;2022-08-07T06:02:44;11.90;;;6.15;;
72791;SDS011;60907;53.268;8.764;2022-08-07T06:05:13;10.10;;;5.57;;
72791;SDS011;60907;53.268;8.764;2022-08-07T06:07:38;13.05;;;6.25;;
72791;SDS011;60907;53.268;8.764;2022-08-07T06:10:04;11.25;;;6.07;;
72791;SDS011;60907;53.268;8.764;2022-08-07T06:12:30;11.80;;;6.35;;
72791;SDS011;60907;53.268;8.764;2022-08-07T06:14:59;12.05;;;6.03;;
72791;SDS011;60907;53.268;8.764;2022-08-07T06:17:25;11.88;;;6.50;;
72791;SDS011;60907;53.268;8.764;2022-08-07T06:19:51;8.90;;;5.20;;
72791;SDS011;60907;53.268;8.764;2022-08-07T06:22:17;11.93;;;5.90;;
72791;SDS011;60907;53.268;8.764;2022-08-07T06:24:44;11.93;;;5.30;;
72791;SDS011;60907;53.268;8.764;2022-08-07T06:27:10;12.23;;;5.05;;
72791;SDS011;60907;53.268;8.764;2022-08-07T06:29:44;11.07;;;5.13;;
72791;SDS011;60907;53.268;8.764;2022-08-07T06:32:09;9.10;;;4.30;;
72791;SDS011;60907;53.268;8.764;2022-08-07T06:34:35;8.63;;;5.53;;
72791;SDS011;60907;53.268;8.764;2022-08-07T06:37:00;9.00;;;5.47;;
72791;SDS011;60907;53.268;8.764;2022-08-07T06:39:26;11.40;;;4.55;;
72791;SDS011;60907;53.268;8.764;2022-08-07T06:41:56;15.82;;;5.75;;
72791;SDS011;60907;53.268;8.764;2022-08-07T06:44:27;10.75;;;4.43;;
72791;SDS011;60907;53.268;8.764;2022-08-07T06:46:52;9.15;;;4.20;;
72791;SDS011;60907;53.268;8.764;2022-08-07T06:49:18;8.57;;;4.03;;
72791;SDS011;60907;53.268;8.764;2022-08-07T06:51:44;7.93;;;4.95;;
72791;SDS011;60907;53.268;8.764;2022-08-07T06:54:10;9.45;;;4.47;;
72791;SDS011;60907;53.268;8.764;2022-08-07T06:56:38;8.52;;;4.43;;
72791;SDS011;60907;53.268;8.764;2022-08-07T06:59:05;8.85;;;4.68;;
72791;SDS011;60907;53.268;8.764;2022-08-07T07:01:32;10.13;;;5.22;;
72791;SDS011;60907;53.268;8.764;2022-08-07T07:03:58;10.80;;;5.88;;
72791;SDS011;60907;53.268;8.764;2022-08-07T07:06:24;8.15;;;4.70;;
72791;SDS011;60907;53.268;8.764;2022-08-07T07:08:50;8.82;;;4.75;;
72791;SDS011;60907;53.268;8.764;2022-08-07T07:11:15;9.75;;;5.30;;
72791;SDS011;60907;53.268;8.764;2022-08-07T07:13:43;10.48;;;5.10;;
72791;SDS011;60907;53.268;8.764;2022-08-07T07:16:13;9.65;;;4.65;;
72791;SDS011;60907;53.268;8.764;2022-08-07T07:18:43;9.93;;;4.65;;
72791;SDS011;60907;53.268;8.764;2022-08-07T07:21:29;9.30;;;4.82;;
72791;SDS011;60907;53.268;8.764;2022-08-07T07:23:57;9.73;;;5.25;;
72791;SDS011;60907;53.268;8.764;2022-08-07T07:26:23;8.73;;;4.93;;
72791;SDS011;60907;53.268;8.764;2022-08-07T07:28:55;9.25;;;4.57;;
72791;SDS011;60907;53.268;8.764;2022-08-07T07:31:25;10.80;;;4.80;;
72791;SDS011;60907;53.268;8.764;2022-08-07T07:33:53;8.93;;;4.93;;
72791;SDS011;60907;53.268;8.764;2022-08-07T07:36:23;8.43;;;4.80;;
72791;SDS011;60907;53.268;8.764;2022-08-07T07:38:50;9.93;;;4.78;;
72791;SDS011;60907;53.268;8.764;2022-08-07T07:41:16;9.68;;;4.55;;
72791;SDS011;60907;53.268;8.764;2022-08-07T07:43:44;9.23;;;5.20;;
72791;SDS011;60907;53.268;8.764;2022-08-07T07:46:12;8.80;;;5.10;;
72791;SDS011;60907;53.268;8.764;2022-08-07T07:48:38;8.10;;;4.18;;
72791;SDS011;60907;53.268;8.764;2022-08-07T07:51:04;7.28;;;4.47;;
72791;SDS011;60907;53.268;8.764;2022-08-07T07:53:30;10.70;;;5.00;;
72791;SDS011;60907;53.268;8.764;2022-08-07T07:55:57;7.05;;;3.90;;
72791;SDS011;60907;53.268;8.764;2022-08-07T07:58:31;6.22;;;3.53;;
72791;SDS011;60907;53.268;8.764;2022-08-07T08:00:58;5.93;;;3.75;;
72791;SDS011;60907;53.268;8.764;2022-08-07T08:03:24;5.68;;;4.00;;
72791;SDS011;60907;53.268;8.764;2022-08-07T08:05:51;7.85;;;3.97;;
72791;SDS011;60907;53.268;8.764;2022-08-07T08:08:17;8.63;;;4.63;;
72791;SDS011;60907;53.268;8.764;2022-08-07T08:10:43;6.85;;;4.07;;
72791;SDS011;60907;53.268;8.764;2022-08-07T08:13:10;9.13;;;4.20;;
72791;SDS011;60907;53.268;8.764;2022-08-07T08:15:37;6.88;;;3.78;;
72791;SDS011;60907;53.268;8.764;2022-08-07T08:18:04;8.40;;;4.20;;
72791;SDS011;60907;53.268;8.764;2022-08-07T08:20:33;6.25;;;4.35;;
72791;SDS011;60907;53.268;8.764;2022-08-07T08:22:58;6.07;;;3.72;;
72791;SDS011;60907;53.268;8.764;2022-08-07T08:25:43;6.88;;;4.18;;
72791;SDS011;60907;53.268;8.764;2022-08-07T08:28:29;7.63;;;3.95;;
72791;SDS011;60907;53.268;8.764;2022-08-07T08:30:56;5.88;;;3.55;;
72791;SDS011;60907;53.268;8.764;2022-08-07T08:33:23;8.18;;;3.60;;
72791;SDS011;60907;53.268;8.764;2022-08-07T08:35:49;7.00;;;3.65;;
72791;SDS011;60907;53.268;8.764;2022-08-07T08:38:16;6.15;;;3.60;;
72791;SDS011;60907;53.268;8.764;2022-08-07T08:40:57;4.93;;;3.45;;
72791;SDS011;60907;53.268;8.764;2022-08-07T08:43:55;5.75;;;3.80;;
72791;SDS011;60907;53.268;8.764;2022-08-07T08:57:07;7.13;;;3.60;;
72791;SDS011;60907;53.268;8.764;2022-08-07T09:10:28;7.28;;;4.07;;
72791;SDS011;60907;53.268;8.764;2022-08-07T09:16:18;6.45;;;3.85;;
72791;SDS011;60907;53.268;8.764;2022-08-07T09:19:01;5.45;;;3.13;;
72791;SDS011;60907;53.268;8.764;2022-08-07T09:27:23;5.30;;;3.75;;
72791;SDS011;60907;53.268;8.764;2022-08-07T09:30:08;5.43;;;3.45;;
72791;SDS011;60907;53.268;8.764;2022-08-07T09:37:51;5.43;;;3.38;;
72791;SDS011;60907;53.268;8.764;2022-08-07T09:40:36;6.90;;;3.00;;
72791;SDS011;60907;53.268;8.764;2022-08-07T09:48:56;5.07;;;3.17;;
72791;SDS011;60907;53.268;8.764;2022-08-07T09:54:35;5.30;;;2.95;;
72791;SDS011;60907;53.268;8.764;2022-08-07T10:11:43;5.97;;;3.13;;
72791;SDS011;60907;53.268;8.764;2022-08-07T10:14:23;5.03;;;3.25;;
72791;SDS011;60907;53.268;8.764;2022-08-07T10:17:08;5.38;;;3.13;;
72791;SDS011;60907;53.268;8.764;2022-08-07T10:23:14;5.80;;;3.25;;
72791;SDS011;60907;53.268;8.764;2022-08-07T10:28:40;4.65;;;3.10;;
72791;SDS011;60907;53.268;8.764;2022-08-07T10:34:19;4.97;;;4.03;;
72791;SDS011;60907;53.268;8.764;2022-08-07T10:40:09;4.80;;;3.17;;
72791;SDS011;60907;53.268;8.764;2022-08-07T10:42:39;6.25;;;3.33;;
72791;SDS011;60907;53.268;8.764;2022-08-07T10:51:19;3.42;;;2.90;;
72791;SDS011;60907;53.268;8.764;2022-08-07T10:56:43;5.82;;;3.20;;
72791;SDS011;60907;53.268;8.764;2022-08-07T11:10:03;5.32;;;2.97;;
72791;SDS011;60907;53.268;8.764;2022-08-07T11:12:44;4.68;;;3.17;;
72791;SDS011;60907;53.268;8.764;2022-08-07T11:15:13;4.18;;;3.22;;
72791;SDS011;60907;53.268;8.764;2022-08-07T11:23:42;4.47;;;2.25;;
72791;SDS011;60907;53.268;8.764;2022-08-07T11:29:10;3.92;;;2.20;;
72791;SDS011;60907;53.268;8.764;2022-08-07T11:31:48;2.95;;;2.20;;
72791;SDS011;60907;53.268;8.764;2022-08-07T11:34:19;2.97;;;2.33;;
72791;SDS011;60907;53.268;8.764;2022-08-07T11:44:54;3.63;;;1.90;;
72791;SDS011;60907;53.268;8.764;2022-08-07T11:50:19;3.53;;;2.10;;
72791;SDS011;60907;53.268;8.764;2022-08-07T11:52:53;3.40;;;2.42;;
72791;SDS011;60907;53.268;8.764;2022-08-07T12:01:09;3.10;;;2.40;;
72791;SDS011;60907;53.268;8.764;2022-08-07T12:06:27;5.50;;;3.00;;
72791;SDS011;60907;53.268;8.764;2022-08-07T12:14:20;3.47;;;2.53;;
72791;SDS011;60907;53.268;8.764;2022-08-07T12:22:22;3.50;;;2.63;;
72791;SDS011;60907;53.268;8.764;2022-08-07T12:27:47;4.63;;;2.92;;
72791;SDS011;60907;53.268;8.764;2022-08-07T12:30:14;4.65;;;3.10;;
72791;SDS011;60907;53.268;8.764;2022-08-07T12:32:41;4.97;;;2.80;;
72791;SDS011;60907;53.268;8.764;2022-08-07T12:35:09;3.97;;;2.88;;
72791;SDS011;60907;53.268;8.764;2022-08-07T12:37:36;4.10;;;2.80;;
72791;SDS011;60907;53.268;8.764;2022-08-07T12:40:04;5.10;;;2.88;;
72791;SDS011;60907;53.268;8.764;2022-08-07T12:42:31;3.92;;;3.10;;
72791;SDS011;60907;53.268;8.764;2022-08-07T12:44:57;4.05;;;2.83;;
72791;SDS011;60907;53.268;8.764;2022-08-07T12:47:43;4.07;;;3.22;;
72791;SDS011;60907;53.268;8.764;2022-08-07T12:50:15;4.43;;;2.55;;
72791;SDS011;60907;53.268;8.764;2022-08-07T12:55:37;4.03;;;3.28;;
72791;SDS011;60907;53.268;8.764;2022-08-07T12:58:06;6.47;;;3.25;;
72791;SDS011;60907;53.268;8.764;2022-08-07T13:00:53;5.10;;;2.85;;
72791;SDS011;60907;53.268;8.764;2022-08-07T13:15:27;4.28;;;2.67;;
72791;SDS011;60907;53.268;8.764;2022-08-07T13:20:39;3.75;;;2.70;;
72791;SDS011;60907;53.268;8.764;2022-08-07T13:28:49;3.45;;;2.90;;
72791;SDS011;60907;53.268;8.764;2022-08-07T13:31:35;5.05;;;2.67;;
72791;SDS011;60907;53.268;8.764;2022-08-07T13:36:44;4.47;;;2.90;;
72791;SDS011;60907;53.268;8.764;2022-08-07T13:41:48;6.10;;;2.58;;
72791;SDS011;60907;53.268;8.764;2022-08-07T13:44:23;3.85;;;3.00;;
72791;SDS011;60907;53.268;8.764;2022-08-07T13:46:52;4.35;;;2.75;;
72791;SDS011;60907;53.268;8.764;2022-08-07T13:49:21;3.03;;;2.72;;
72791;SDS011;60907;53.268;8.764;2022-08-07T13:51:48;5.95;;;3.63;;
72791;SDS011;60907;53.268;8.764;2022-08-07T13:54:15;4.82;;;2.88;;
72791;SDS011;60907;53.268;8.764;2022-08-07T13:56:41;3.78;;;2.85;;
72791;SDS011;60907;53.268;8.764;2022-08-07T14:01:44;4.72;;;2.53;;
72791;SDS011;60907;53.268;8.764;2022-08-07T14:04:14;6.07;;;2.22;;
72791;SDS011;60907;53.268;8.764;2022-08-07T14:06:41;3.47;;;2.60;;
72791;SDS011;60907;53.268;8.764;2022-08-07T14:09:09;4.38;;;3.05;;
72791;SDS011;60907;53.268;8.764;2022-08-07T14:11:44;3.63;;;2.53;;
72791;SDS011;60907;53.268;8.764;2022-08-07T14:14:14;4.60;;;3.20;;
72791;SDS011;60907;53.268;8.764;2022-08-07T14:16:41;3.60;;;2.30;;
72791;SDS011;60907;53.268;8.764;2022-08-07T14:19:20;5.25;;;2.75;;
72791;SDS011;60907;53.268;8.764;2022-08-07T14:21:49;3.88;;;2.45;;
72791;SDS011;60907;53.268;8.764;2022-08-07T14:24:28;18.85;;;3.28;;
72791;SDS011;60907;53.268;8.764;2022-08-07T14:27:04;5.68;;;2.60;;
72791;SDS011;60907;53.268;8.764;2022-08-07T14:29:36;6.50;;;2.70;;
72791;SDS011;60907;53.268;8.764;2022-08-07T14:32:05;15.23;;;3.45;;
72791;SDS011;60907;53.268;8.764;2022-08-07T14:34:35;3.30;;;2.45;;
72791;SDS011;60907;53.268;8.764;2022-08-07T14:37:06;3.80;;;2.95;;
72791;SDS011;60907;53.268;8.764;2022-08-07T14:39:36;7.03;;;2.65;;
72791;SDS011;60907;53.268;8.764;2022-08-07T14:42:03;3.85;;;2.58;;
72791;SDS011;60907;53.268;8.764;2022-08-07T14:44:30;4.18;;;2.90;;
72791;SDS011;60907;53.268;8.764;2022-08-07T14:46:57;4.00;;;2.17;;
72791;SDS011;60907;53.268;8.764;2022-08-07T14:49:27;4.32;;;2.50;;
72791;SDS011;60907;53.268;8.764;2022-08-07T14:51:55;4.47;;;2.38;;
72791;SDS011;60907;53.268;8.764;2022-08-07T14:54:21;3.78;;;2.65;;
72791;SDS011;60907;53.268;8.764;2022-08-07T14:56:48;5.03;;;3.10;;
72791;SDS011;60907;53.268;8.764;2022-08-07T14:59:14;5.30;;;4.00;;
72791;SDS011;60907;53.268;8.764;2022-08-07T15:01:45;6.22;;;2.80;;
72791;SDS011;60907;53.268;8.764;2022-08-07T15:04:11;2.60;;;2.15;;
72791;SDS011;60907;53.268;8.764;2022-08-07T15:06:37;4.88;;;2.50;;
72791;SDS011;60907;53.268;8.764;2022-08-07T15:09:05;4.40;;;2.67;;
72791;SDS011;60907;53.268;8.764;2022-08-07T15:11:36;3.30;;;2.60;;
72791;SDS011;60907;53.268;8.764;2022-08-07T15:14:04;3.13;;;2.28;;
72791;SDS011;60907;53.268;8.764;2022-08-07T15:19:14;3.17;;;2.47;;
72791;SDS011;60907;53.268;8.764;2022-08-07T15:21:42;3.30;;;2.47;;
72791;SDS011;60907;53.268;8.764;2022-08-07T15:24:19;5.28;;;3.33;;
72791;SDS011;60907;53.268;8.764;2022-08-07T15:26:50;3.13;;;2.38;;
72791;SDS011;60907;53.268;8.764;2022-08-07T15:29:20;3.13;;;2.60;;
72791;SDS011;60907;53.268;8.764;2022-08-07T15:31:47;3.95;;;2.03;;
72791;SDS011;60907;53.268;8.764;2022-08-07T15:34:13;3.08;;;2.38;;
72791;SDS011;60907;53.268;8.764;2022-08-07T15:36:40;3.45;;;2.30;;
72791;SDS011;60907;53.268;8.764;2022-08-07T15:39:07;3.60;;;2.42;;
72791;SDS011;60907;53.268;8.764;2022-08-07T15:44:27;3.50;;;2.78;;
72791;SDS011;60907;53.268;8.764;2022-08-07T15:46:56;6.68;;;2.70;;
72791;SDS011;60907;53.268;8.764;2022-08-07T15:49:30;3.63;;;3.17;;
72791;SDS011;60907;53.268;8.764;2022-08-07T15:51:58;3.85;;;2.50;;
72791;SDS011;60907;53.268;8.764;2022-08-07T15:54:25;6.20;;;2.63;;
72791;SDS011;60907;53.268;8.764;2022-08-07T15:56:57;4.10;;;2.58;;
72791;SDS011;60907;53.268;8.764;2022-08-07T15:59:23;2.92;;;2.13;;
72791;SDS011;60907;53.268;8.764;2022-08-07T16:04:18;3.63;;;2.20;;
72791;SDS011;60907;53.268;8.764;2022-08-07T16:06:48;3.65;;;2.28;;
72791;SDS011;60907;53.268;8.764;2022-08-07T16:32:02;3.28;;;2.10;;
72791;SDS011;60907;53.268;8.764;2022-08-07T16:40:12;13.32;;;2.72;;
72791;SDS011;60907;53.268;8.764;2022-08-07T16:45:44;3.85;;;2.20;;
72791;SDS011;60907;53.268;8.764;2022-08-07T16:51:55;2.85;;;1.92;;
72791;SDS011;60907;53.268;8.764;2022-08-07T17:01:02;2.85;;;2.40;;
72791;SDS011;60907;53.268;8.764;2022-08-07T17:03:46;3.53;;;2.03;;
72791;SDS011;60907;53.268;8.764;2022-08-07T17:09:07;4.10;;;2.53;;
72791;SDS011;60907;53.268;8.764;2022-08-07T17:11:45;3.38;;;2.30;;
72791;SDS011;60907;53.268;8.764;2022-08-07T17:14:45;3.10;;;2.08;;
72791;SDS011;60907;53.268;8.764;2022-08-07T17:19:59;3.08;;;2.05;;
72791;SDS011;60907;53.268;8.764;2022-08-07T17:22:33;3.25;;;1.90;;
72791;SDS011;60907;53.268;8.764;2022-08-07T17:27:56;3.65;;;1.95;;
72791;SDS011;60907;53.268;8.764;2022-08-07T17:30:23;4.40;;;2.42;;
72791;SDS011;60907;53.268;8.764;2022-08-07T17:32:55;2.85;;;2.40;;
72791;SDS011;60907;53.268;8.764;2022-08-07T17:35:38;2.15;;;1.80;;
72791;SDS011;60907;53.268;8.764;2022-08-07T17:38:12;2.50;;;1.80;;
72791;SDS011;60907;53.268;8.764;2022-08-07T17:44:08;2.95;;;1.75;;
72791;SDS011;60907;53.268;8.764;2022-08-07T17:46:49;3.35;;;2.03;;
72791;SDS011;60907;53.268;8.764;2022-08-07T17:49:24;2.42;;;1.70;;
72791;SDS011;60907;53.268;8.764;2022-08-07T17:51:56;2.97;;;1.95;;
72791;SDS011;60907;53.268;8.764;2022-08-07T17:54:49;4.18;;;2.60;;
72791;SDS011;60907;53.268;8.764;2022-08-07T17:57:26;2.47;;;1.70;;
72791;SDS011;60907;53.268;8.764;2022-08-07T18:00:03;2.67;;;2.08;;
72791;SDS011;60907;53.268;8.764;2022-08-07T18:05:21;3.55;;;1.60;;
72791;SDS011;60907;53.268;8.764;2022-08-07T18:10:53;2.97;;;1.60;;
72791;SDS011;60907;53.268;8.764;2022-08-07T18:13:45;4.28;;;2.30;;
72791;SDS011;60907;53.268;8.764;2022-08-07T18:16:33;2.55;;;1.42;;
72791;SDS011;60907;53.268;8.764;2022-08-07T18:19:15;2.50;;;1.80;;
72791;SDS011;60907;53.268;8.764;2022-08-07T18:21:47;2.92;;;1.90;;
72791;SDS011;60907;53.268;8.764;2022-08-07T18:30:22;3.58;;;2.03;;
72791;SDS011;60907;53.268;8.764;2022-08-07T18:41:46;4.07;;;2.15;;
72791;SDS011;60907;53.268;8.764;2022-08-07T18:44:28;3.28;;;2.25;;
72791;SDS011;60907;53.268;8.764;2022-08-07T19:03:50;2.95;;;1.77;;
72791;SDS011;60907;53.268;8.764;2022-08-07T19:08:59;5.35;;;2.30;;
72791;SDS011;60907;53.268;8.764;2022-08-07T19:14:05;3.08;;;2.38;;
72791;SDS011;60907;53.268;8.764;2022-08-07T19:16:57;15.05;;;4.28;;
72791;SDS011;60907;53.268;8.764;2022-08-07T19:19:30;3.80;;;2.35;;
72791;SDS011;60907;53.268;8.764;2022-08-07T19:22:21;4.18;;;3.03;;
72791;SDS011;60907;53.268;8.764;2022-08-07T19:24:49;4.25;;;2.55;;
72791;SDS011;60907;53.268;8.764;2022-08-07T19:27:18;5.38;;;3.05;;
72791;SDS011;60907;53.268;8.764;2022-08-07T19:29:48;5.05;;;2.70;;
72791;SDS011;60907;53.268;8.764;2022-08-07T19:32:17;3.75;;;2.85;;
72791;SDS011;60907;53.268;8.764;2022-08-07T19:34:50;4.40;;;3.63;;
72791;SDS011;60907;53.268;8.764;2022-08-07T19:37:18;3.80;;;3.00;;
72791;SDS011;60907;53.268;8.764;2022-08-07T19:39:50;5.28;;;2.92;;